Aviation Digital Data Service (ADDS)

Output produced by TAFs form (1853 UTC 27 January 2015)
found at http://aviationweather.gov/adds/tafs/
 
KAEG 271726Z 2718/2818 VRB05KT P6SM BKN070 
     FM272100 31005KT P6SM SCT080 
     FM280200 31005KT P6SM SKC